sensor_id;sensor_type;location;lat;lon;timestamp;pressure;altitude;pressure_sealevel;temperature;humidity
26087;BME280;13851;43.434;28.338;2023-03-14T00:01:21;100403.66;;;5.86;100.00
26087;BME280;13851;43.434;28.338;2023-03-14T00:03:47;100406.03;;;5.69;100.00
26087;BME280;13851;43.434;28.338;2023-03-14T00:06:13;100423.47;;;5.67;100.00
26087;BME280;13851;43.434;28.338;2023-03-14T00:08:40;100342.19;;;5.54;100.00
26087;BME280;13851;43.434;28.338;2023-03-14T00:11:11;100353.63;;;5.58;100.00
26087;BME280;13851;43.434;28.338;2023-03-14T00:13:36;100407.56;;;5.93;100.00
26087;BME280;13851;43.434;28.338;2023-03-14T00:16:04;100098.47;;;4.16;100.00
26087;BME280;13851;43.434;28.338;2023-03-14T00:18:30;100404.31;;;5.99;100.00
26087;BME280;13851;43.434;28.338;2023-03-14T00:21:01;100402.56;;;5.98;100.00
26087;BME280;13851;43.434;28.338;2023-03-14T00:23:28;100402.97;;;5.93;100.00
26087;BME280;13851;43.434;28.338;2023-03-14T00:25:58;100137.66;;;4.33;100.00
26087;BME280;13851;43.434;28.338;2023-03-14T00:28:24;100028.88;;;3.65;100.00
26087;BME280;13851;43.434;28.338;2023-03-14T00:30:49;100419.22;;;5.74;100.00
26087;BME280;13851;43.434;28.338;2023-03-14T00:33:15;100009.72;;;3.57;100.00
26087;BME280;13851;43.434;28.338;2023-03-14T00:35:40;100376.03;;;5.81;100.00
26087;BME280;13851;43.434;28.338;2023-03-14T00:38:06;99963.72;;;3.36;100.00
26087;BME280;13851;43.434;28.338;2023-03-14T00:40:31;100370.84;;;5.78;100.00
26087;BME280;13851;43.434;28.338;2023-03-14T00:42:57;100276.56;;;5.18;100.00
26087;BME280;13851;43.434;28.338;2023-03-14T00:45:22;100336.88;;;5.53;100.00
26087;BME280;13851;43.434;28.338;2023-03-14T00:47:47;100369.47;;;5.43;100.00
26087;BME280;13851;43.434;28.338;2023-03-14T00:50:13;100325.31;;;5.60;100.00
26087;BME280;13851;43.434;28.338;2023-03-14T00:52:39;100321.03;;;5.17;100.00
26087;BME280;13851;43.434;28.338;2023-03-14T00:55:04;100033.63;;;3.73;100.00
26087;BME280;13851;43.434;28.338;2023-03-14T00:57:30;100250.66;;;5.05;100.00
26087;BME280;13851;43.434;28.338;2023-03-14T00:59:55;99967.47;;;3.45;100.00
26087;BME280;13851;43.434;28.338;2023-03-14T01:02:21;100111.22;;;4.25;100.00
26087;BME280;13851;43.434;28.338;2023-03-14T01:04:49;100274.00;;;5.27;100.00
26087;BME280;13851;43.434;28.338;2023-03-14T01:07:15;100280.63;;;5.34;100.00
26087;BME280;13851;43.434;28.338;2023-03-14T01:09:41;100388.28;;;5.65;100.00
26087;BME280;13851;43.434;28.338;2023-03-14T01:12:06;99935.19;;;3.32;100.00
26087;BME280;13851;43.434;28.338;2023-03-14T01:14:32;100329.94;;;5.69;100.00
26087;BME280;13851;43.434;28.338;2023-03-14T01:16:57;100288.94;;;5.42;100.00
26087;BME280;13851;43.434;28.338;2023-03-14T01:19:27;100221.75;;;4.94;100.00
26087;BME280;13851;43.434;28.338;2023-03-14T01:21:53;100276.72;;;5.27;100.00
26087;BME280;13851;43.434;28.338;2023-03-14T01:24:18;100280.63;;;5.34;100.00
26087;BME280;13851;43.434;28.338;2023-03-14T01:26:44;100301.09;;;5.47;100.00
26087;BME280;13851;43.434;28.338;2023-03-14T01:29:09;100354.13;;;5.42;100.00
26087;BME280;13851;43.434;28.338;2023-03-14T01:31:35;100272.25;;;5.16;100.00
26087;BME280;13851;43.434;28.338;2023-03-14T01:34:00;100344.72;;;5.46;100.00
26087;BME280;13851;43.434;28.338;2023-03-14T01:36:26;100311.78;;;5.30;100.00
26087;BME280;13851;43.434;28.338;2023-03-14T01:38:52;99981.19;;;3.53;100.00
26087;BME280;13851;43.434;28.338;2023-03-14T01:41:21;99962.50;;;3.50;100.00
26087;BME280;13851;43.434;28.338;2023-03-14T01:43:47;100330.63;;;5.71;100.00
26087;BME280;13851;43.434;28.338;2023-03-14T01:46:29;100356.50;;;5.66;100.00
26087;BME280;13851;43.434;28.338;2023-03-14T01:48:57;100327.34;;;5.78;100.00
26087;BME280;13851;43.434;28.338;2023-03-14T01:51:29;100328.22;;;5.78;100.00
26087;BME280;13851;43.434;28.338;2023-03-14T01:54:04;100256.19;;;5.34;100.00
26087;BME280;13851;43.434;28.338;2023-03-14T01:56:30;100315.59;;;5.67;100.00
26087;BME280;13851;43.434;28.338;2023-03-14T01:58:57;100004.47;;;3.86;100.00
26087;BME280;13851;43.434;28.338;2023-03-14T02:01:24;100083.69;;;4.30;100.00
26087;BME280;13851;43.434;28.338;2023-03-14T02:03:56;100320.25;;;5.46;100.00
26087;BME280;13851;43.434;28.338;2023-03-14T02:06:31;100325.03;;;5.73;100.00
26087;BME280;13851;43.434;28.338;2023-03-14T02:09:00;99912.34;;;3.25;100.00
26087;BME280;13851;43.434;28.338;2023-03-14T02:11:28;99952.09;;;3.45;100.00
26087;BME280;13851;43.434;28.338;2023-03-14T02:13:55;100312.00;;;5.57;100.00
26087;BME280;13851;43.434;28.338;2023-03-14T02:16:21;100084.13;;;4.04;100.00
26087;BME280;13851;43.434;28.338;2023-03-14T02:18:47;100321.22;;;5.76;100.00
26087;BME280;13851;43.434;28.338;2023-03-14T02:24:50;100316.78;;;5.74;100.00
26087;BME280;13851;43.434;28.338;2023-03-14T02:27:16;100309.88;;;5.70;100.00
26087;BME280;13851;43.434;28.338;2023-03-14T02:32:16;100259.47;;;5.28;100.00
26087;BME280;13851;43.434;28.338;2023-03-14T02:34:44;100330.19;;;5.66;100.00
26087;BME280;13851;43.434;28.338;2023-03-14T02:37:15;100309.69;;;5.43;100.00
26087;BME280;13851;43.434;28.338;2023-03-14T02:39:44;100386.25;;;5.67;100.00
26087;BME280;13851;43.434;28.338;2023-03-14T02:42:12;100001.09;;;3.73;100.00
26087;BME280;13851;43.434;28.338;2023-03-14T02:48:01;100347.94;;;5.70;100.00
26087;BME280;13851;43.434;28.338;2023-03-14T02:50:30;100344.53;;;5.68;100.00
26087;BME280;13851;43.434;28.338;2023-03-14T02:52:59;100397.31;;;5.76;100.00
26087;BME280;13851;43.434;28.338;2023-03-14T02:55:25;100381.44;;;5.81;100.00
26087;BME280;13851;43.434;28.338;2023-03-14T02:57:52;100282.66;;;5.51;100.00
26087;BME280;13851;43.434;28.338;2023-03-14T03:00:18;100012.81;;;4.04;100.00
26087;BME280;13851;43.434;28.338;2023-03-14T03:02:45;100336.00;;;6.02;100.00
26087;BME280;13851;43.434;28.338;2023-03-14T03:05:10;99975.25;;;3.99;100.00
26087;BME280;13851;43.434;28.338;2023-03-14T03:07:36;100277.31;;;5.90;100.00
26087;BME280;13851;43.434;28.338;2023-03-14T03:10:02;100356.06;;;6.11;100.00
26087;BME280;13851;43.434;28.338;2023-03-14T03:12:28;100086.75;;;4.46;100.00
26087;BME280;13851;43.434;28.338;2023-03-14T03:14:53;100019.44;;;4.21;100.00
26087;BME280;13851;43.434;28.338;2023-03-14T03:17:19;100277.09;;;5.43;100.00
26087;BME280;13851;43.434;28.338;2023-03-14T03:19:44;100065.50;;;4.51;100.00
26087;BME280;13851;43.434;28.338;2023-03-14T03:22:10;100351.28;;;5.84;100.00
26087;BME280;13851;43.434;28.338;2023-03-14T03:24:35;100188.25;;;5.24;100.00
26087;BME280;13851;43.434;28.338;2023-03-14T03:27:01;100349.47;;;5.94;100.00
26087;BME280;13851;43.434;28.338;2023-03-14T03:29:26;100271.84;;;5.70;100.00
26087;BME280;13851;43.434;28.338;2023-03-14T03:31:52;100310.19;;;5.87;100.00
26087;BME280;13851;43.434;28.338;2023-03-14T03:34:18;100302.03;;;5.87;100.00
26087;BME280;13851;43.434;28.338;2023-03-14T03:36:43;100296.59;;;5.87;100.00
26087;BME280;13851;43.434;28.338;2023-03-14T03:39:09;100273.22;;;5.45;100.00
26087;BME280;13851;43.434;28.338;2023-03-14T03:41:34;100252.63;;;5.43;100.00
26087;BME280;13851;43.434;28.338;2023-03-14T03:44:00;100295.59;;;5.68;100.00
26087;BME280;13851;43.434;28.338;2023-03-14T03:46:25;100309.59;;;5.64;100.00
26087;BME280;13851;43.434;28.338;2023-03-14T03:48:55;100262.91;;;5.39;100.00
26087;BME280;13851;43.434;28.338;2023-03-14T03:51:20;99991.47;;;3.80;100.00
26087;BME280;13851;43.434;28.338;2023-03-14T03:53:46;100060.72;;;4.03;100.00
26087;BME280;13851;43.434;28.338;2023-03-14T03:56:12;100179.47;;;5.01;100.00
26087;BME280;13851;43.434;28.338;2023-03-14T03:58:37;100222.84;;;5.32;100.00
26087;BME280;13851;43.434;28.338;2023-03-14T04:01:05;100305.06;;;5.84;100.00
26087;BME280;13851;43.434;28.338;2023-03-14T04:03:31;100266.03;;;5.35;100.00
26087;BME280;13851;43.434;28.338;2023-03-14T04:06:10;100285.84;;;5.66;100.00
26087;BME280;13851;43.434;28.338;2023-03-14T04:08:37;100185.06;;;5.09;100.00
26087;BME280;13851;43.434;28.338;2023-03-14T04:11:03;100348.53;;;5.74;100.00
26087;BME280;13851;43.434;28.338;2023-03-14T04:13:29;100328.47;;;5.65;100.00
26087;BME280;13851;43.434;28.338;2023-03-14T04:15:55;100305.72;;;5.66;100.00
26087;BME280;13851;43.434;28.338;2023-03-14T04:18:21;100288.66;;;5.45;100.00
26087;BME280;13851;43.434;28.338;2023-03-14T04:20:52;99890.22;;;3.41;100.00
26087;BME280;13851;43.434;28.338;2023-03-14T04:23:19;100129.84;;;4.80;100.00
26087;BME280;13851;43.434;28.338;2023-03-14T04:25:45;100030.81;;;4.05;100.00
26087;BME280;13851;43.434;28.338;2023-03-14T04:28:10;100272.09;;;5.48;100.00
26087;BME280;13851;43.434;28.338;2023-03-14T04:30:36;100308.03;;;5.71;100.00
26087;BME280;13851;43.434;28.338;2023-03-14T04:33:02;100307.53;;;5.46;100.00
26087;BME280;13851;43.434;28.338;2023-03-14T04:35:29;100279.28;;;5.68;100.00
26087;BME280;13851;43.434;28.338;2023-03-14T04:37:55;100273.25;;;5.55;100.00
26087;BME280;13851;43.434;28.338;2023-03-14T04:40:20;100351.09;;;5.76;100.00
26087;BME280;13851;43.434;28.338;2023-03-14T04:42:46;100291.31;;;5.76;100.00
26087;BME280;13851;43.434;28.338;2023-03-14T04:45:11;100300.47;;;5.74;100.00
26087;BME280;13851;43.434;28.338;2023-03-14T04:47:37;99942.50;;;3.72;100.00
26087;BME280;13851;43.434;28.338;2023-03-14T04:50:03;100337.97;;;5.81;100.00
26087;BME280;13851;43.434;28.338;2023-03-14T04:52:28;100196.38;;;5.14;100.00
26087;BME280;13851;43.434;28.338;2023-03-14T04:54:54;100214.16;;;5.38;100.00
26087;BME280;13851;43.434;28.338;2023-03-14T04:57:19;100256.09;;;5.64;100.00
26087;BME280;13851;43.434;28.338;2023-03-14T04:59:45;99625.53;;;1.93;100.00
26087;BME280;13851;43.434;28.338;2023-03-14T05:02:12;99800.13;;;2.98;100.00
26087;BME280;13851;43.434;28.338;2023-03-14T05:04:37;100208.00;;;5.36;100.00
26087;BME280;13851;43.434;28.338;2023-03-14T05:07:03;99954.31;;;4.01;100.00
26087;BME280;13851;43.434;28.338;2023-03-14T05:09:29;100172.00;;;5.43;100.00
26087;BME280;13851;43.434;28.338;2023-03-14T05:11:54;100160.50;;;5.20;100.00
26087;BME280;13851;43.434;28.338;2023-03-14T05:14:20;100263.84;;;5.79;100.00
26087;BME280;13851;43.434;28.338;2023-03-14T05:16:46;100261.00;;;6.29;100.00
26087;BME280;13851;43.434;28.338;2023-03-14T05:19:11;100215.66;;;6.66;100.00
26087;BME280;13851;43.434;28.338;2023-03-14T05:21:37;100288.38;;;7.58;100.00
26087;BME280;13851;43.434;28.338;2023-03-14T05:24:03;100155.44;;;7.24;100.00
26087;BME280;13851;43.434;28.338;2023-03-14T05:26:29;100288.50;;;8.20;100.00
26087;BME280;13851;43.434;28.338;2023-03-14T05:28:55;99972.31;;;6.32;100.00
26087;BME280;13851;43.434;28.338;2023-03-14T05:31:21;99856.50;;;5.56;100.00
26087;BME280;13851;43.434;28.338;2023-03-14T05:33:46;100326.16;;;8.16;100.00
26087;BME280;13851;43.434;28.338;2023-03-14T05:36:12;100230.50;;;8.00;100.00
26087;BME280;13851;43.434;28.338;2023-03-14T05:38:37;100085.66;;;6.96;100.00
26087;BME280;13851;43.434;28.338;2023-03-14T05:41:03;100286.66;;;8.38;100.00
26087;BME280;13851;43.434;28.338;2023-03-14T05:43:29;100310.19;;;8.21;100.00
26087;BME280;13851;43.434;28.338;2023-03-14T05:45:54;100202.59;;;7.88;100.00
26087;BME280;13851;43.434;28.338;2023-03-14T05:48:20;99910.41;;;5.88;100.00
26087;BME280;13851;43.434;28.338;2023-03-14T05:50:47;100271.97;;;8.03;100.00
26087;BME280;13851;43.434;28.338;2023-03-14T05:53:12;100324.59;;;7.96;100.00
26087;BME280;13851;43.434;28.338;2023-03-14T05:55:39;100015.63;;;6.25;100.00
26087;BME280;13851;43.434;28.338;2023-03-14T05:58:04;100332.19;;;8.20;100.00
26087;BME280;13851;43.434;28.338;2023-03-14T06:00:30;100245.09;;;7.91;100.00
26087;BME280;13851;43.434;28.338;2023-03-14T06:02:55;99979.47;;;6.33;100.00
26087;BME280;13851;43.434;28.338;2023-03-14T06:05:21;100284.97;;;7.92;100.00
26087;BME280;13851;43.434;28.338;2023-03-14T06:07:46;100315.22;;;7.80;100.00
26087;BME280;13851;43.434;28.338;2023-03-14T06:10:12;100273.50;;;7.70;100.00
26087;BME280;13851;43.434;28.338;2023-03-14T06:12:37;100294.34;;;8.07;100.00
26087;BME280;13851;43.434;28.338;2023-03-14T06:15:03;100299.25;;;8.03;100.00
26087;BME280;13851;43.434;28.338;2023-03-14T06:17:28;100214.97;;;7.47;100.00
26087;BME280;13851;43.434;28.338;2023-03-14T06:19:54;100278.31;;;7.31;100.00
26087;BME280;13851;43.434;28.338;2023-03-14T06:22:19;100311.41;;;7.73;100.00
26087;BME280;13851;43.434;28.338;2023-03-14T06:24:45;100320.88;;;7.42;100.00
26087;BME280;13851;43.434;28.338;2023-03-14T06:27:10;100117.84;;;6.55;100.00
26087;BME280;13851;43.434;28.338;2023-03-14T06:29:36;100269.28;;;7.30;100.00
26087;BME280;13851;43.434;28.338;2023-03-14T06:32:01;99927.97;;;5.66;100.00
26087;BME280;13851;43.434;28.338;2023-03-14T06:34:27;100122.81;;;6.97;100.00
26087;BME280;13851;43.434;28.338;2023-03-14T06:36:53;100299.56;;;8.00;100.00
26087;BME280;13851;43.434;28.338;2023-03-14T06:39:18;100350.03;;;8.14;100.00
26087;BME280;13851;43.434;28.338;2023-03-14T06:41:45;100301.44;;;8.00;100.00
26087;BME280;13851;43.434;28.338;2023-03-14T06:44:10;100298.88;;;8.16;100.00
26087;BME280;13851;43.434;28.338;2023-03-14T06:46:36;100271.03;;;7.95;100.00
26087;BME280;13851;43.434;28.338;2023-03-14T06:49:01;100285.63;;;8.21;100.00
26087;BME280;13851;43.434;28.338;2023-03-14T06:51:27;100251.41;;;7.91;100.00
26087;BME280;13851;43.434;28.338;2023-03-14T06:53:52;99989.09;;;5.99;100.00
26087;BME280;13851;43.434;28.338;2023-03-14T06:56:18;99935.44;;;5.55;100.00
26087;BME280;13851;43.434;28.338;2023-03-14T06:58:43;100213.41;;;7.44;100.00
26087;BME280;13851;43.434;28.338;2023-03-14T07:01:27;99878.84;;;5.50;100.00
26087;BME280;13851;43.434;28.338;2023-03-14T07:03:53;100287.56;;;8.11;100.00
26087;BME280;13851;43.434;28.338;2023-03-14T07:06:19;100254.91;;;7.84;100.00
26087;BME280;13851;43.434;28.338;2023-03-14T07:08:45;100054.22;;;6.84;100.00
26087;BME280;13851;43.434;28.338;2023-03-14T07:11:10;100247.91;;;7.99;100.00
26087;BME280;13851;43.434;28.338;2023-03-14T07:13:37;100118.25;;;7.51;100.00
26087;BME280;13851;43.434;28.338;2023-03-14T07:16:03;100157.59;;;7.48;100.00
26087;BME280;13851;43.434;28.338;2023-03-14T07:18:29;100220.91;;;7.60;100.00
26087;BME280;13851;43.434;28.338;2023-03-14T07:20:54;100168.53;;;6.93;100.00
26087;BME280;13851;43.434;28.338;2023-03-14T07:23:20;100273.78;;;7.49;100.00
26087;BME280;13851;43.434;28.338;2023-03-14T07:25:45;100197.78;;;7.19;100.00
26087;BME280;13851;43.434;28.338;2023-03-14T07:28:11;100316.97;;;7.99;100.00
26087;BME280;13851;43.434;28.338;2023-03-14T07:30:36;100081.69;;;6.90;100.00
26087;BME280;13851;43.434;28.338;2023-03-14T07:33:02;100280.88;;;8.05;100.00
26087;BME280;13851;43.434;28.338;2023-03-14T07:35:27;100265.06;;;8.09;100.00
26087;BME280;13851;43.434;28.338;2023-03-14T07:37:53;100264.16;;;8.08;100.00
26087;BME280;13851;43.434;28.338;2023-03-14T07:40:19;99893.94;;;5.62;100.00
26087;BME280;13851;43.434;28.338;2023-03-14T07:42:44;100174.13;;;7.19;100.00
26087;BME280;13851;43.434;28.338;2023-03-14T07:45:10;100247.44;;;7.40;100.00
26087;BME280;13851;43.434;28.338;2023-03-14T07:47:36;100257.69;;;7.92;100.00
26087;BME280;13851;43.434;28.338;2023-03-14T07:50:03;100240.16;;;7.59;100.00
26087;BME280;13851;43.434;28.338;2023-03-14T07:52:29;100247.50;;;8.29;100.00
26087;BME280;13851;43.434;28.338;2023-03-14T07:54:54;100250.69;;;8.07;100.00
26087;BME280;13851;43.434;28.338;2023-03-14T07:57:20;100217.03;;;7.80;100.00
26087;BME280;13851;43.434;28.338;2023-03-14T07:59:46;100193.00;;;8.02;100.00
26087;BME280;13851;43.434;28.338;2023-03-14T08:02:12;100239.94;;;8.41;100.00
26087;BME280;13851;43.434;28.338;2023-03-14T08:04:39;100238.06;;;8.68;100.00
26087;BME280;13851;43.434;28.338;2023-03-14T08:07:05;100235.53;;;8.74;100.00
26087;BME280;13851;43.434;28.338;2023-03-14T08:09:31;100141.56;;;8.33;100.00
26087;BME280;13851;43.434;28.338;2023-03-14T08:11:56;100232.19;;;8.80;100.00
26087;BME280;13851;43.434;28.338;2023-03-14T08:14:22;99894.19;;;6.24;100.00
26087;BME280;13851;43.434;28.338;2023-03-14T08:16:50;100181.03;;;7.95;100.00
26087;BME280;13851;43.434;28.338;2023-03-14T08:19:16;100234.31;;;8.07;100.00
26087;BME280;13851;43.434;28.338;2023-03-14T08:21:41;99739.78;;;5.09;100.00
26087;BME280;13851;43.434;28.338;2023-03-14T08:24:07;100223.56;;;7.88;100.00
26087;BME280;13851;43.434;28.338;2023-03-14T08:26:33;100223.63;;;8.14;100.00
26087;BME280;13851;43.434;28.338;2023-03-14T08:28:58;99884.47;;;6.21;100.00
26087;BME280;13851;43.434;28.338;2023-03-14T08:31:24;100209.47;;;7.92;100.00
26087;BME280;13851;43.434;28.338;2023-03-14T08:33:49;100180.69;;;7.98;100.00
26087;BME280;13851;43.434;28.338;2023-03-14T08:36:17;100165.03;;;8.00;100.00
26087;BME280;13851;43.434;28.338;2023-03-14T08:38:43;100079.00;;;7.44;100.00
26087;BME280;13851;43.434;28.338;2023-03-14T08:41:09;100201.75;;;7.88;100.00
26087;BME280;13851;43.434;28.338;2023-03-14T08:43:35;100255.84;;;8.10;100.00
26087;BME280;13851;43.434;28.338;2023-03-14T08:46:01;100238.66;;;8.36;100.00
26087;BME280;13851;43.434;28.338;2023-03-14T08:48:27;100196.41;;;8.40;100.00
26087;BME280;13851;43.434;28.338;2023-03-14T08:50:55;99935.13;;;7.29;100.00
26087;BME280;13851;43.434;28.338;2023-03-14T08:53:21;100151.00;;;8.39;100.00
26087;BME280;13851;43.434;28.338;2023-03-14T08:55:52;100238.13;;;8.76;100.00
26087;BME280;13851;43.434;28.338;2023-03-14T08:58:18;100107.09;;;8.58;100.00
26087;BME280;13851;43.434;28.338;2023-03-14T09:00:44;100138.22;;;8.73;100.00
26087;BME280;13851;43.434;28.338;2023-03-14T09:03:09;99897.63;;;7.23;100.00
26087;BME280;13851;43.434;28.338;2023-03-14T09:05:35;100151.50;;;8.16;100.00
26087;BME280;13851;43.434;28.338;2023-03-14T09:08:01;100223.97;;;7.75;100.00
26087;BME280;13851;43.434;28.338;2023-03-14T09:10:26;100080.56;;;7.28;100.00
26087;BME280;13851;43.434;28.338;2023-03-14T09:12:52;99840.38;;;5.72;100.00
26087;BME280;13851;43.434;28.338;2023-03-14T09:15:17;100162.19;;;7.84;100.00
26087;BME280;13851;43.434;28.338;2023-03-14T09:17:43;100142.16;;;7.57;100.00
26087;BME280;13851;43.434;28.338;2023-03-14T09:20:10;100189.91;;;7.97;100.00
26087;BME280;13851;43.434;28.338;2023-03-14T09:22:36;100155.09;;;8.17;100.00
26087;BME280;13851;43.434;28.338;2023-03-14T09:25:05;100194.78;;;8.81;100.00
26087;BME280;13851;43.434;28.338;2023-03-14T09:27:31;100131.38;;;8.69;100.00
26087;BME280;13851;43.434;28.338;2023-03-14T09:29:56;100176.22;;;8.93;100.00
26087;BME280;13851;43.434;28.338;2023-03-14T09:32:22;100123.56;;;9.17;100.00
26087;BME280;13851;43.434;28.338;2023-03-14T09:34:47;100114.94;;;8.95;100.00
26087;BME280;13851;43.434;28.338;2023-03-14T09:37:13;100145.97;;;9.36;100.00
26087;BME280;13851;43.434;28.338;2023-03-14T09:39:40;100164.25;;;9.28;100.00
26087;BME280;13851;43.434;28.338;2023-03-14T09:42:08;100130.19;;;9.14;100.00
26087;BME280;13851;43.434;28.338;2023-03-14T09:44:42;100150.44;;;9.37;100.00
26087;BME280;13851;43.434;28.338;2023-03-14T09:47:12;100081.59;;;8.75;100.00
26087;BME280;13851;43.434;28.338;2023-03-14T09:49:40;100075.84;;;8.26;100.00
26087;BME280;13851;43.434;28.338;2023-03-14T09:54:50;100145.81;;;8.88;100.00
26087;BME280;13851;43.434;28.338;2023-03-14T09:57:21;100067.09;;;8.41;100.00
26087;BME280;13851;43.434;28.338;2023-03-14T09:59:49;100163.22;;;8.52;100.00
26087;BME280;13851;43.434;28.338;2023-03-14T10:02:21;100146.06;;;8.68;100.00
26087;BME280;13851;43.434;28.338;2023-03-14T10:04:49;100121.72;;;8.83;100.00
26087;BME280;13851;43.434;28.338;2023-03-14T10:07:18;100037.34;;;8.72;100.00
26087;BME280;13851;43.434;28.338;2023-03-14T10:09:49;100131.91;;;8.73;100.00
26087;BME280;13851;43.434;28.338;2023-03-14T10:12:16;100157.06;;;8.50;100.00
26087;BME280;13851;43.434;28.338;2023-03-14T10:14:50;100132.47;;;8.84;100.00
26087;BME280;13851;43.434;28.338;2023-03-14T10:17:17;100134.47;;;8.66;100.00
26087;BME280;13851;43.434;28.338;2023-03-14T10:19:56;100120.56;;;8.85;100.00
26087;BME280;13851;43.434;28.338;2023-03-14T10:22:40;99997.81;;;8.42;100.00
26087;BME280;13851;43.434;28.338;2023-03-14T10:25:06;100064.88;;;8.87;100.00
26087;BME280;13851;43.434;28.338;2023-03-14T10:27:44;100125.41;;;9.08;100.00
26087;BME280;13851;43.434;28.338;2023-03-14T10:30:35;99796.22;;;7.38;100.00
26087;BME280;13851;43.434;28.338;2023-03-14T10:33:30;100110.88;;;9.16;100.00
26087;BME280;13851;43.434;28.338;2023-03-14T10:35:58;100104.22;;;9.02;100.00
26087;BME280;13851;43.434;28.338;2023-03-14T10:38:30;99851.97;;;7.51;100.00
26087;BME280;13851;43.434;28.338;2023-03-14T10:40:56;100056.03;;;8.93;100.00
26087;BME280;13851;43.434;28.338;2023-03-14T10:45:58;100004.09;;;8.76;100.00
26087;BME280;13851;43.434;28.338;2023-03-14T10:48:36;100083.09;;;9.28;100.00
26087;BME280;13851;43.434;28.338;2023-03-14T10:53:48;100070.63;;;9.42;100.00
26087;BME280;13851;43.434;28.338;2023-03-14T10:56:18;99996.16;;;8.57;100.00
26087;BME280;13851;43.434;28.338;2023-03-14T10:58:46;100092.09;;;9.21;100.00
26087;BME280;13851;43.434;28.338;2023-03-14T11:01:17;99798.59;;;7.33;100.00
26087;BME280;13851;43.434;28.338;2023-03-14T11:09:45;100034.19;;;9.25;100.00
26087;BME280;13851;43.434;28.338;2023-03-14T11:15:03;99907.28;;;9.03;100.00
26087;BME280;13851;43.434;28.338;2023-03-14T11:17:37;99748.69;;;8.23;100.00
26087;BME280;13851;43.434;28.338;2023-03-14T11:25:41;99998.84;;;10.36;100.00
26087;BME280;13851;43.434;28.338;2023-03-14T11:30:54;100002.34;;;10.06;100.00
26087;BME280;13851;43.434;28.338;2023-03-14T11:33:44;99689.66;;;7.65;100.00
26087;BME280;13851;43.434;28.338;2023-03-14T11:36:15;99706.56;;;7.26;100.00
26087;BME280;13851;43.434;28.338;2023-03-14T11:38:49;99978.53;;;9.02;100.00
26087;BME280;13851;43.434;28.338;2023-03-14T11:41:33;99911.75;;;8.96;100.00
26087;BME280;13851;43.434;28.338;2023-03-14T11:44:04;100010.66;;;9.32;100.00
26087;BME280;13851;43.434;28.338;2023-03-14T11:46:42;99926.91;;;8.82;100.00
26087;BME280;13851;43.434;28.338;2023-03-14T11:49:32;99963.81;;;8.87;100.00
26087;BME280;13851;43.434;28.338;2023-03-14T11:52:04;99570.50;;;6.58;100.00
26087;BME280;13851;43.434;28.338;2023-03-14T11:54:48;99952.69;;;8.80;100.00
26087;BME280;13851;43.434;28.338;2023-03-14T11:57:20;99994.06;;;9.18;100.00
26087;BME280;13851;43.434;28.338;2023-03-14T12:02:17;99924.13;;;9.56;100.00
26087;BME280;13851;43.434;28.338;2023-03-14T12:13:10;99894.91;;;9.64;100.00
26087;BME280;13851;43.434;28.338;2023-03-14T12:15:54;99874.25;;;10.01;100.00
26087;BME280;13851;43.434;28.338;2023-03-14T12:18:35;99921.13;;;10.68;100.00
26087;BME280;13851;43.434;28.338;2023-03-14T12:21:07;99851.81;;;11.06;100.00
26087;BME280;13851;43.434;28.338;2023-03-14T12:23:56;99856.59;;;11.41;100.00
26087;BME280;13851;43.434;28.338;2023-03-14T12:26:24;99721.03;;;10.62;100.00
26087;BME280;13851;43.434;28.338;2023-03-14T12:28:52;99572.06;;;9.96;100.00
26087;BME280;13851;43.434;28.338;2023-03-14T12:31:45;99800.59;;;11.21;100.00
26087;BME280;13851;43.434;28.338;2023-03-14T12:39:47;99857.59;;;11.26;100.00
26087;BME280;13851;43.434;28.338;2023-03-14T12:45:15;99832.09;;;9.79;100.00
26087;BME280;13851;43.434;28.338;2023-03-14T12:47:54;99859.44;;;10.19;100.00
26087;BME280;13851;43.434;28.338;2023-03-14T12:51:14;99568.25;;;8.43;100.00
26087;BME280;13851;43.434;28.338;2023-03-14T12:53:26;99672.44;;;9.49;100.00
26087;BME280;13851;43.434;28.338;2023-03-14T12:56:32;99864.38;;;10.77;100.00
26087;BME280;13851;43.434;28.338;2023-03-14T13:01:59;99851.81;;;11.06;100.00
26087;BME280;13851;43.434;28.338;2023-03-14T13:04:31;99892.69;;;10.92;100.00
26087;BME280;13851;43.434;28.338;2023-03-14T13:06:59;99597.63;;;8.80;100.00
26087;BME280;13851;43.434;28.338;2023-03-14T13:12:09;99828.41;;;9.56;100.00
26087;BME280;13851;43.434;28.338;2023-03-14T13:14:40;99830.78;;;10.37;100.00
26087;BME280;13851;43.434;28.338;2023-03-14T13:17:09;99809.81;;;10.90;100.00
26087;BME280;13851;43.434;28.338;2023-03-14T13:19:35;99794.00;;;10.78;100.00
26087;BME280;13851;43.434;28.338;2023-03-14T13:22:47;99482.94;;;9.03;100.00
26087;BME280;13851;43.434;28.338;2023-03-14T13:25:04;99653.06;;;10.05;100.00
26087;BME280;13851;43.434;28.338;2023-03-14T13:27:31;99777.00;;;10.82;100.00
26087;BME280;13851;43.434;28.338;2023-03-14T13:29:57;99460.13;;;8.65;100.00
26087;BME280;13851;43.434;28.338;2023-03-14T13:32:28;99707.66;;;9.75;100.00
26087;BME280;13851;43.434;28.338;2023-03-14T13:34:58;99509.53;;;8.55;100.00
26087;BME280;13851;43.434;28.338;2023-03-14T13:37:25;99754.00;;;10.00;100.00
26087;BME280;13851;43.434;28.338;2023-03-14T13:39:53;99646.06;;;9.25;100.00
26087;BME280;13851;43.434;28.338;2023-03-14T13:42:21;99735.59;;;9.62;100.00
26087;BME280;13851;43.434;28.338;2023-03-14T13:44:47;99400.38;;;7.52;100.00
26087;BME280;13851;43.434;28.338;2023-03-14T13:47:15;99747.56;;;9.22;100.00